RYR6RK EBCI-LIMF
Flight info
| Callsign | RYR6RK |
|---|---|
| Flight time | 1h 10m |
| Altitude | 35000 |
| Route | RITAX UT27 ROUSY DCT GTQ DCT DEVDI DCT BASGO DCT AKASU DCT NELAB |
| Aircraft | B736/M-SDE2E3FGHIRWXY/LB1 |
Departure
| Time | 2026-04-28 14:22 |
|---|---|
| Airport | Brussels South Charleroi Airport (EBCI) |
Arrival
| Time | 2026-04-28 15:33 |
|---|---|
| Airport | Turin Airport (LIMF) |
| Time | Latitude | Longitude | Altitude | Speed | Heading |
|---|---|---|---|---|---|
| 2026-04-28 13:54 | 50.46930 | 4.47286 | 584 ft | 0 kts | 335° |
| 2026-04-28 14:12 | 50.46929 | 4.47286 | 584 ft | 2 kts | 335° |
| 2026-04-28 14:12 | 50.46907 | 4.47302 | 583 ft | 2 kts | 335° |
| 2026-04-28 14:12 | 50.46890 | 4.47320 | 583 ft | 4 kts | 295° |
| 2026-04-28 14:13 | 50.46887 | 4.47358 | 584 ft | 5 kts | 255° |
| 2026-04-28 14:13 | 50.46891 | 4.47380 | 584 ft | 3 kts | 245° |
| 2026-04-28 14:13 | 50.46891 | 4.47381 | 584 ft | 3 kts | 245° |
| 2026-04-28 14:16 | 50.46887 | 4.47366 | 584 ft | 4 kts | 245° |
| 2026-04-28 14:17 | 50.46868 | 4.47301 | 584 ft | 9 kts | 246° |
| 2026-04-28 14:17 | 50.46839 | 4.47201 | 584 ft | 11 kts | 245° |
| 2026-04-28 14:17 | 50.46805 | 4.47085 | 585 ft | 12 kts | 244° |
| 2026-04-28 14:17 | 50.46771 | 4.46969 | 584 ft | 12 kts | 249° |
| 2026-04-28 14:18 | 50.46738 | 4.46854 | 586 ft | 11 kts | 245° |
| 2026-04-28 14:18 | 50.46688 | 4.46772 | 588 ft | 11 kts | 178° |
| 2026-04-28 14:18 | 50.46616 | 4.46796 | 591 ft | 11 kts | 205° |
| 2026-04-28 14:18 | 50.46575 | 4.46695 | 590 ft | 12 kts | 245° |
| 2026-04-28 14:19 | 50.46533 | 4.46551 | 589 ft | 18 kts | 246° |
| 2026-04-28 14:19 | 50.46472 | 4.46341 | 589 ft | 24 kts | 245° |
| 2026-04-28 14:19 | 50.46398 | 4.46084 | 591 ft | 28 kts | 246° |
| 2026-04-28 14:19 | 50.46317 | 4.45808 | 596 ft | 30 kts | 245° |
| 2026-04-28 14:20 | 50.46225 | 4.45492 | 598 ft | 33 kts | 246° |
| 2026-04-28 14:20 | 50.46130 | 4.45164 | 597 ft | 33 kts | 245° |
| 2026-04-28 14:20 | 50.46043 | 4.44865 | 596 ft | 22 kts | 245° |
| 2026-04-28 14:20 | 50.45993 | 4.44778 | 595 ft | 10 kts | 200° |
| 2026-04-28 14:21 | 50.45928 | 4.44789 | 596 ft | 9 kts | 156° |
| 2026-04-28 14:21 | 50.45873 | 4.44831 | 596 ft | 3 kts | 154° |
| 2026-04-28 14:21 | 50.45863 | 4.44864 | 595 ft | 6 kts | 84° |
| 2026-04-28 14:21 | 50.45880 | 4.44927 | 593 ft | 1 kts | 64° |
| 2026-04-28 14:22 | 50.45932 | 4.45105 | 591 ft | 49 kts | 65° |
| 2026-04-28 14:22 | 50.46166 | 4.45904 | 593 ft | 109 kts | 65° |
| 2026-04-28 14:22 | 50.46500 | 4.47104 | 925 ft | 124 kts | 66° |
| 2026-04-28 14:22 | 50.46851 | 4.48416 | 1437 ft | 132 kts | 59° |
| 2026-04-28 14:23 | 50.47571 | 4.49152 | 2175 ft | 134 kts | 11° |
| 2026-04-28 14:23 | 50.48482 | 4.49543 | 2691 ft | 147 kts | 46° |
| 2026-04-28 14:23 | 50.49099 | 4.51034 | 3052 ft | 180 kts | 58° |
| 2026-04-28 14:23 | 50.49871 | 4.52827 | 3324 ft | 216 kts | 56° |
| 2026-04-28 14:24 | 50.50811 | 4.54863 | 3908 ft | 236 kts | 56° |
| 2026-04-28 14:24 | 50.51801 | 4.56949 | 4892 ft | 240 kts | 57° |
| 2026-04-28 14:24 | 50.52834 | 4.59110 | 5664 ft | 253 kts | 57° |
| 2026-04-28 14:24 | 50.53917 | 4.61329 | 6588 ft | 261 kts | 57° |
| 2026-04-28 14:25 | 50.55030 | 4.63590 | 7635 ft | 261 kts | 57° |
| 2026-04-28 14:25 | 50.56151 | 4.65859 | 8657 ft | 267 kts | 56° |
| 2026-04-28 14:25 | 50.57306 | 4.68201 | 9699 ft | 273 kts | 57° |
| 2026-04-28 14:25 | 50.58483 | 4.70594 | 10714 ft | 281 kts | 57° |
| 2026-04-28 14:26 | 50.59715 | 4.73103 | 11153 ft | 309 kts | 56° |
| 2026-04-28 14:26 | 50.61115 | 4.75950 | 11477 ft | 337 kts | 53° |
| 2026-04-28 14:26 | 50.62568 | 4.78903 | 12387 ft | 343 kts | 54° |
| 2026-04-28 14:26 | 50.64025 | 4.81933 | 13344 ft | 350 kts | 58° |
| 2026-04-28 14:27 | 50.64937 | 4.85423 | 14237 ft | 353 kts | 81° |
| 2026-04-28 14:27 | 50.64949 | 4.89273 | 15127 ft | 356 kts | 102° |
| 2026-04-28 14:27 | 50.64096 | 4.92953 | 15993 ft | 357 kts | 122° |
| 2026-04-28 14:27 | 50.62600 | 4.96027 | 17294 ft | 353 kts | 134° |
| 2026-04-28 14:28 | 50.60878 | 4.98820 | 18220 ft | 360 kts | 136° |
| 2026-04-28 14:28 | 50.59061 | 5.01595 | 19064 ft | 364 kts | 137° |
| 2026-04-28 14:28 | 50.57222 | 5.04373 | 19851 ft | 370 kts | 137° |
| 2026-04-28 14:28 | 50.55354 | 5.07212 | 20600 ft | 376 kts | 137° |
| 2026-04-28 14:29 | 50.53464 | 5.10115 | 21282 ft | 385 kts | 137° |
| 2026-04-28 14:29 | 50.51539 | 5.13094 | 22018 ft | 391 kts | 137° |
| 2026-04-28 14:29 | 50.49592 | 5.16124 | 22765 ft | 397 kts | 137° |
| 2026-04-28 14:29 | 50.47617 | 5.19203 | 23442 ft | 405 kts | 136° |
| 2026-04-28 14:30 | 50.45598 | 5.22355 | 24016 ft | 413 kts | 136° |
| 2026-04-28 14:30 | 50.43558 | 5.25540 | 24742 ft | 414 kts | 136° |
| 2026-04-28 14:30 | 50.41507 | 5.28741 | 25444 ft | 417 kts | 137° |
| 2026-04-28 14:30 | 50.39431 | 5.31970 | 25956 ft | 425 kts | 137° |
| 2026-04-28 14:31 | 50.37321 | 5.35250 | 26601 ft | 428 kts | 137° |
| 2026-04-28 14:31 | 50.35202 | 5.38539 | 27229 ft | 432 kts | 137° |
| 2026-04-28 14:31 | 50.33057 | 5.41865 | 27765 ft | 437 kts | 137° |
| 2026-04-28 14:31 | 50.30886 | 5.45226 | 28291 ft | 441 kts | 137° |
| 2026-04-28 14:32 | 50.28693 | 5.48616 | 28821 ft | 446 kts | 138° |
| 2026-04-28 14:32 | 50.26465 | 5.52054 | 29138 ft | 455 kts | 138° |
| 2026-04-28 14:32 | 50.24197 | 5.55550 | 29566 ft | 460 kts | 137° |
| 2026-04-28 14:32 | 50.21908 | 5.59077 | 30142 ft | 463 kts | 138° |
| 2026-04-28 14:33 | 50.19613 | 5.62608 | 30589 ft | 465 kts | 138° |
| 2026-04-28 14:33 | 50.17308 | 5.66149 | 31116 ft | 465 kts | 138° |
| 2026-04-28 14:33 | 50.15007 | 5.69681 | 31789 ft | 461 kts | 139° |
| 2026-04-28 14:33 | 50.12728 | 5.73172 | 32442 ft | 458 kts | 139° |
| 2026-04-28 14:34 | 50.08090 | 5.79996 | 33321 ft | 457 kts | 148° |
| 2026-04-28 14:34 | 50.05301 | 5.82224 | 33689 ft | 449 kts | 164° |
| 2026-04-28 14:34 | 50.02345 | 5.83746 | 34246 ft | 445 kts | 166° |
| 2026-04-28 14:35 | 49.99405 | 5.85196 | 34675 ft | 444 kts | 166° |
| 2026-04-28 14:35 | 49.96445 | 5.86651 | 34919 ft | 447 kts | 166° |
| 2026-04-28 14:35 | 49.93473 | 5.88130 | 35178 ft | 450 kts | 166° |
| 2026-04-28 14:35 | 49.90494 | 5.89634 | 35513 ft | 451 kts | 165° |
| 2026-04-28 14:36 | 49.87515 | 5.91154 | 35852 ft | 451 kts | 165° |
| 2026-04-28 14:36 | 49.84520 | 5.92689 | 36074 ft | 455 kts | 165° |
| 2026-04-28 14:36 | 49.81510 | 5.94234 | 36349 ft | 456 kts | 165° |
| 2026-04-28 14:36 | 49.78493 | 5.95782 | 36694 ft | 456 kts | 165° |
| 2026-04-28 14:37 | 49.75517 | 5.97307 | 37017 ft | 457 kts | 165° |
| 2026-04-28 14:37 | 49.72449 | 5.98876 | 37297 ft | 459 kts | 165° |
| 2026-04-28 14:37 | 49.69457 | 6.00404 | 37581 ft | 460 kts | 165° |
| 2026-04-28 14:37 | 49.66419 | 6.01952 | 37899 ft | 460 kts | 165° |
| 2026-04-28 14:38 | 49.63375 | 6.03502 | 38202 ft | 461 kts | 165° |
| 2026-04-28 14:38 | 49.60321 | 6.05054 | 38483 ft | 462 kts | 164° |
| 2026-04-28 14:38 | 49.57265 | 6.06606 | 38750 ft | 463 kts | 165° |
| 2026-04-28 14:38 | 49.54201 | 6.08160 | 38997 ft | 463 kts | 165° |
| 2026-04-28 14:39 | 49.51141 | 6.09709 | 39252 ft | 463 kts | 165° |
| 2026-04-28 14:39 | 49.48140 | 6.11566 | 39475 ft | 467 kts | 156° |
| 2026-04-28 14:39 | 49.45338 | 6.14105 | 39693 ft | 471 kts | 146° |
| 2026-04-28 14:39 | 49.42762 | 6.17217 | 39944 ft | 472 kts | 143° |
| 2026-04-28 14:40 | 49.40234 | 6.20413 | 40187 ft | 472 kts | 142° |
| 2026-04-28 14:40 | 49.38517 | 6.22596 | 40334 ft | 472 kts | 142° |
| 2026-04-28 14:40 | 49.35155 | 6.26848 | 40572 ft | 474 kts | 143° |
| 2026-04-28 14:41 | 49.30007 | 6.33253 | 40893 ft | 477 kts | 143° |
| 2026-04-28 14:41 | 49.27422 | 6.36439 | 41092 ft | 478 kts | 143° |
| 2026-04-28 14:41 | 49.24817 | 6.39637 | 41058 ft | 481 kts | 143° |
| 2026-04-28 14:42 | 49.19600 | 6.46026 | 41048 ft | 478 kts | 143° |
| 2026-04-28 14:42 | 49.14440 | 6.52335 | 41057 ft | 473 kts | 143° |
| 2026-04-28 14:43 | 49.09306 | 6.58596 | 41052 ft | 471 kts | 144° |
| 2026-04-28 14:43 | 49.04185 | 6.64826 | 41056 ft | 471 kts | 144° |
| 2026-04-28 14:44 | 48.99021 | 6.70974 | 41056 ft | 470 kts | 149° |
| 2026-04-28 14:44 | 48.93238 | 6.75485 | 41067 ft | 467 kts | 159° |
| 2026-04-28 14:45 | 48.87260 | 6.79441 | 41049 ft | 470 kts | 160° |
| 2026-04-28 14:45 | 48.81263 | 6.83439 | 41061 ft | 472 kts | 159° |
| 2026-04-28 14:46 | 48.75255 | 6.87499 | 41064 ft | 473 kts | 159° |
| 2026-04-28 14:46 | 48.69235 | 6.91581 | 41055 ft | 474 kts | 159° |
| 2026-04-28 14:47 | 48.63209 | 6.95658 | 41053 ft | 474 kts | 159° |
| 2026-04-28 14:47 | 48.57186 | 6.99721 | 41056 ft | 474 kts | 159° |
| 2026-04-28 14:48 | 48.51178 | 7.03760 | 41052 ft | 473 kts | 159° |
| 2026-04-28 14:48 | 48.45164 | 7.07793 | 41057 ft | 472 kts | 159° |
| 2026-04-28 14:49 | 48.39206 | 7.11777 | 41042 ft | 470 kts | 160° |
| 2026-04-28 14:49 | 48.33233 | 7.15762 | 41037 ft | 469 kts | 160° |
| 2026-04-28 14:50 | 48.27276 | 7.19726 | 41032 ft | 468 kts | 160° |
| 2026-04-28 14:50 | 48.21328 | 7.23673 | 41012 ft | 467 kts | 160° |
| 2026-04-28 14:51 | 48.15392 | 7.27603 | 41018 ft | 466 kts | 160° |
| 2026-04-28 14:51 | 48.09445 | 7.31529 | 41021 ft | 467 kts | 160° |
| 2026-04-28 14:52 | 48.03483 | 7.35455 | 41026 ft | 468 kts | 160° |
| 2026-04-28 14:52 | 47.97505 | 7.39383 | 41016 ft | 470 kts | 160° |
| 2026-04-28 14:53 | 47.91512 | 7.43311 | 41033 ft | 471 kts | 160° |
| 2026-04-28 14:53 | 47.85508 | 7.47236 | 41035 ft | 472 kts | 160° |
| 2026-04-28 14:54 | 47.79482 | 7.51167 | 41046 ft | 473 kts | 160° |
| 2026-04-28 14:54 | 47.73492 | 7.55063 | 41046 ft | 473 kts | 160° |
| 2026-04-28 14:55 | 47.67460 | 7.58974 | 41042 ft | 472 kts | 160° |
| 2026-04-28 14:55 | 47.61446 | 7.62863 | 41046 ft | 471 kts | 160° |
| 2026-04-28 14:56 | 47.55457 | 7.66727 | 41039 ft | 469 kts | 160° |
| 2026-04-28 14:56 | 47.49480 | 7.70574 | 41042 ft | 468 kts | 160° |
| 2026-04-28 14:57 | 47.43511 | 7.74407 | 41051 ft | 466 kts | 160° |
| 2026-04-28 14:57 | 47.37563 | 7.78217 | 41045 ft | 465 kts | 160° |
| 2026-04-28 14:58 | 47.31632 | 7.82007 | 41038 ft | 464 kts | 160° |
| 2026-04-28 14:58 | 47.25702 | 7.85787 | 41051 ft | 465 kts | 160° |
| 2026-04-28 14:59 | 47.19755 | 7.89567 | 41040 ft | 466 kts | 160° |
| 2026-04-28 14:59 | 47.13802 | 7.93343 | 41042 ft | 466 kts | 160° |
| 2026-04-28 15:00 | 47.08852 | 7.96477 | 41038 ft | 466 kts | 160° |
| 2026-04-28 15:00 | 47.02907 | 8.00231 | 41067 ft | 465 kts | 160° |
| 2026-04-28 15:01 | 46.96962 | 8.03976 | 41091 ft | 465 kts | 160° |
| 2026-04-28 15:01 | 46.91004 | 8.07720 | 41102 ft | 466 kts | 161° |
| 2026-04-28 15:02 | 46.85036 | 8.11461 | 41081 ft | 466 kts | 160° |
| 2026-04-28 15:02 | 46.79087 | 8.15184 | 41081 ft | 464 kts | 160° |
| 2026-04-28 15:03 | 46.73135 | 8.18896 | 41107 ft | 466 kts | 161° |
| 2026-04-28 15:03 | 46.67154 | 8.22616 | 41100 ft | 469 kts | 160° |
| 2026-04-28 15:04 | 46.61138 | 8.26352 | 41089 ft | 470 kts | 160° |
| 2026-04-28 15:04 | 46.55139 | 8.30068 | 41090 ft | 472 kts | 161° |
| 2026-04-28 15:05 | 46.49090 | 8.33806 | 41081 ft | 472 kts | 161° |
| 2026-04-28 15:05 | 46.43050 | 8.37530 | 41057 ft | 471 kts | 160° |
| 2026-04-28 15:06 | 46.37023 | 8.41238 | 41088 ft | 472 kts | 161° |
| 2026-04-28 15:06 | 46.30958 | 8.44955 | 41083 ft | 473 kts | 161° |
| 2026-04-28 15:07 | 46.24745 | 8.47738 | 41068 ft | 462 kts | 177° |
| 2026-04-28 15:07 | 46.18389 | 8.48555 | 41093 ft | 458 kts | 179° |
| 2026-04-28 15:08 | 46.12041 | 8.49407 | 41034 ft | 458 kts | 180° |
| 2026-04-28 15:08 | 46.08843 | 8.49381 | 40349 ft | 457 kts | 190° |
| 2026-04-28 15:08 | 46.05714 | 8.48818 | 39724 ft | 452 kts | 192° |
| 2026-04-28 15:08 | 46.02602 | 8.48183 | 39009 ft | 450 kts | 193° |
| 2026-04-28 15:09 | 45.99504 | 8.47544 | 38224 ft | 449 kts | 193° |
| 2026-04-28 15:09 | 45.96410 | 8.46924 | 37400 ft | 447 kts | 193° |
| 2026-04-28 15:09 | 45.93341 | 8.46332 | 36635 ft | 444 kts | 193° |
| 2026-04-28 15:09 | 45.90285 | 8.45756 | 35872 ft | 442 kts | 193° |
| 2026-04-28 15:10 | 45.87234 | 8.45189 | 34996 ft | 443 kts | 193° |
| 2026-04-28 15:10 | 45.84172 | 8.44625 | 34102 ft | 444 kts | 193° |
| 2026-04-28 15:10 | 45.81107 | 8.44061 | 33053 ft | 445 kts | 193° |
| 2026-04-28 15:10 | 45.78038 | 8.43496 | 32046 ft | 445 kts | 192° |
| 2026-04-28 15:11 | 45.74965 | 8.42931 | 31009 ft | 446 kts | 192° |
| 2026-04-28 15:11 | 45.71922 | 8.42372 | 29975 ft | 447 kts | 192° |
| 2026-04-28 15:11 | 45.68861 | 8.41812 | 29148 ft | 440 kts | 192° |
| 2026-04-28 15:11 | 45.65846 | 8.41262 | 28374 ft | 433 kts | 191° |
| 2026-04-28 15:12 | 45.62906 | 8.40575 | 27614 ft | 423 kts | 199° |
| 2026-04-28 15:12 | 45.60234 | 8.38878 | 26907 ft | 409 kts | 213° |
| 2026-04-28 15:12 | 45.57808 | 8.36908 | 26169 ft | 406 kts | 213° |
| 2026-04-28 15:12 | 45.55360 | 8.34926 | 25450 ft | 402 kts | 212° |
| 2026-04-28 15:13 | 45.52937 | 8.32984 | 24742 ft | 399 kts | 212° |
| 2026-04-28 15:13 | 45.50514 | 8.31061 | 24031 ft | 397 kts | 212° |
| 2026-04-28 15:13 | 45.48099 | 8.29158 | 23247 ft | 396 kts | 212° |
| 2026-04-28 15:13 | 45.45694 | 8.27272 | 22451 ft | 393 kts | 212° |
| 2026-04-28 15:14 | 45.43308 | 8.25405 | 21739 ft | 389 kts | 211° |
| 2026-04-28 15:14 | 45.40952 | 8.23565 | 21019 ft | 386 kts | 211° |
| 2026-04-28 15:14 | 45.38608 | 8.21735 | 20311 ft | 383 kts | 211° |
| 2026-04-28 15:14 | 45.36281 | 8.19919 | 19613 ft | 380 kts | 211° |
| 2026-04-28 15:15 | 45.33980 | 8.18125 | 19164 ft | 371 kts | 211° |
| 2026-04-28 15:15 | 45.31770 | 8.16406 | 19007 ft | 356 kts | 211° |
| 2026-04-28 15:15 | 45.29638 | 8.14750 | 18859 ft | 342 kts | 212° |
| 2026-04-28 15:15 | 45.27586 | 8.13155 | 18714 ft | 330 kts | 212° |
| 2026-04-28 15:16 | 45.25847 | 8.11195 | 18576 ft | 314 kts | 232° |
| 2026-04-28 15:16 | 45.24678 | 8.08621 | 18217 ft | 310 kts | 246° |
| 2026-04-28 15:16 | 45.24065 | 8.05708 | 17781 ft | 308 kts | 258° |
| 2026-04-28 15:16 | 45.23706 | 8.02717 | 17352 ft | 307 kts | 260° |
| 2026-04-28 15:17 | 45.23386 | 7.99728 | 16928 ft | 306 kts | 261° |
| 2026-04-28 15:17 | 45.23064 | 7.96749 | 16513 ft | 305 kts | 260° |
| 2026-04-28 15:17 | 45.22729 | 7.93783 | 16104 ft | 304 kts | 259° |
| 2026-04-28 15:17 | 45.22385 | 7.90833 | 15699 ft | 303 kts | 259° |
| 2026-04-28 15:18 | 45.22036 | 7.87883 | 15299 ft | 303 kts | 259° |
| 2026-04-28 15:18 | 45.21681 | 7.84953 | 14888 ft | 302 kts | 257° |
| 2026-04-28 15:18 | 45.20861 | 7.82237 | 14466 ft | 301 kts | 234° |
| 2026-04-28 15:18 | 45.19344 | 7.80214 | 14059 ft | 302 kts | 213° |
| 2026-04-28 15:19 | 45.17411 | 7.79027 | 13587 ft | 306 kts | 193° |
| 2026-04-28 15:19 | 45.15295 | 7.78727 | 13168 ft | 306 kts | 184° |
| 2026-04-28 15:19 | 45.13173 | 7.78616 | 12858 ft | 302 kts | 184° |
| 2026-04-28 15:19 | 45.11102 | 7.78509 | 12709 ft | 293 kts | 184° |
| 2026-04-28 15:20 | 45.09090 | 7.78391 | 12561 ft | 286 kts | 184° |
| 2026-04-28 15:20 | 45.07102 | 7.78268 | 12191 ft | 284 kts | 184° |
| 2026-04-28 15:20 | 45.05156 | 7.78144 | 11861 ft | 279 kts | 184° |
| 2026-04-28 15:20 | 45.03237 | 7.78019 | 11525 ft | 273 kts | 184° |
| 2026-04-28 15:21 | 45.01359 | 7.77896 | 11202 ft | 267 kts | 184° |
| 2026-04-28 15:21 | 44.99513 | 7.77775 | 10912 ft | 265 kts | 184° |
| 2026-04-28 15:21 | 44.97670 | 7.77655 | 10597 ft | 267 kts | 184° |
| 2026-04-28 15:21 | 44.95802 | 7.77531 | 10279 ft | 269 kts | 184° |
| 2026-04-28 15:22 | 44.93957 | 7.77409 | 9957 ft | 270 kts | 184° |
| 2026-04-28 15:22 | 44.92068 | 7.77284 | 9588 ft | 272 kts | 183° |
| 2026-04-28 15:22 | 44.90174 | 7.77159 | 9241 ft | 273 kts | 183° |
| 2026-04-28 15:22 | 44.88278 | 7.77034 | 8933 ft | 270 kts | 183° |
| 2026-04-28 15:23 | 44.86421 | 7.76913 | 8685 ft | 265 kts | 183° |
| 2026-04-28 15:23 | 44.84593 | 7.76793 | 8449 ft | 262 kts | 183° |
| 2026-04-28 15:23 | 44.82820 | 7.76366 | 8168 ft | 259 kts | 204° |
| 2026-04-28 15:23 | 44.81426 | 7.74843 | 7947 ft | 255 kts | 232° |
| 2026-04-28 15:24 | 44.80667 | 7.72613 | 7731 ft | 255 kts | 256° |
| 2026-04-28 15:24 | 44.80558 | 7.70125 | 7511 ft | 256 kts | 271° |
| 2026-04-28 15:24 | 44.80657 | 7.67609 | 7270 ft | 258 kts | 273° |
| 2026-04-28 15:24 | 44.81134 | 7.65187 | 7010 ft | 259 kts | 300° |
| 2026-04-28 15:25 | 44.82399 | 7.63442 | 6772 ft | 256 kts | 333° |
| 2026-04-28 15:25 | 44.84113 | 7.62901 | 6567 ft | 251 kts | 356° |
| 2026-04-28 15:25 | 44.85838 | 7.62825 | 6353 ft | 244 kts | 0° |
| 2026-04-28 15:25 | 44.87497 | 7.62872 | 6106 ft | 234 kts | 2° |
| 2026-04-28 15:26 | 44.89092 | 7.62963 | 5861 ft | 225 kts | 3° |
| 2026-04-28 15:26 | 44.90623 | 7.63061 | 5656 ft | 215 kts | 3° |
| 2026-04-28 15:26 | 44.92085 | 7.63156 | 5444 ft | 205 kts | 4° |
| 2026-04-28 15:26 | 44.93473 | 7.63246 | 5261 ft | 195 kts | 4° |
| 2026-04-28 15:27 | 44.94792 | 7.63331 | 5065 ft | 185 kts | 4° |
| 2026-04-28 15:27 | 44.96065 | 7.63413 | 4912 ft | 181 kts | 4° |
| 2026-04-28 15:27 | 44.97320 | 7.63495 | 4759 ft | 181 kts | 4° |
| 2026-04-28 15:27 | 44.98560 | 7.63575 | 4601 ft | 179 kts | 4° |
| 2026-04-28 15:28 | 44.99782 | 7.63653 | 4474 ft | 166 kts | 4° |
| 2026-04-28 15:28 | 45.00940 | 7.63728 | 4356 ft | 175 kts | 4° |
| 2026-04-28 15:28 | 45.02135 | 7.63806 | 4130 ft | 172 kts | 4° |
| 2026-04-28 15:28 | 45.03301 | 7.63880 | 3922 ft | 164 kts | 4° |
| 2026-04-28 15:29 | 45.04422 | 7.63952 | 3718 ft | 157 kts | 4° |
| 2026-04-28 15:29 | 45.05496 | 7.64021 | 3528 ft | 154 kts | 4° |
| 2026-04-28 15:29 | 45.06569 | 7.64091 | 3342 ft | 156 kts | 4° |
| 2026-04-28 15:29 | 45.07665 | 7.64162 | 3132 ft | 158 kts | 4° |
| 2026-04-28 15:30 | 45.08755 | 7.64232 | 2914 ft | 155 kts | 4° |
| 2026-04-28 15:30 | 45.09832 | 7.64301 | 2718 ft | 152 kts | 5° |
| 2026-04-28 15:30 | 45.10853 | 7.64366 | 2511 ft | 142 kts | 5° |
| 2026-04-28 15:30 | 45.11819 | 7.64429 | 2366 ft | 134 kts | 6° |
| 2026-04-28 15:31 | 45.12744 | 7.64489 | 2149 ft | 130 kts | 6° |
| 2026-04-28 15:31 | 45.13654 | 7.64547 | 1967 ft | 131 kts | 6° |
| 2026-04-28 15:31 | 45.14559 | 7.64606 | 1795 ft | 131 kts | 5° |
| 2026-04-28 15:31 | 45.15455 | 7.64666 | 1613 ft | 128 kts | 5° |
| 2026-04-28 15:32 | 45.16343 | 7.64738 | 1444 ft | 128 kts | 4° |
| 2026-04-28 15:32 | 45.16935 | 7.64768 | 1362 ft | 128 kts | 5° |
| 2026-04-28 15:32 | 45.18116 | 7.64836 | 1141 ft | 127 kts | 4° |
| 2026-04-28 15:32 | 45.18987 | 7.64892 | 974 ft | 123 kts | 2° |
| 2026-04-28 15:33 | 45.19756 | 7.64941 | 966 ft | 92 kts | 2° |
| 2026-04-28 15:33 | 45.20256 | 7.64969 | 982 ft | 59 kts | 2° |
| 2026-04-28 15:33 | 45.20627 | 7.64997 | 992 ft | 49 kts | 4° |
| 2026-04-28 15:33 | 45.20833 | 7.64982 | 996 ft | 17 kts | 326° |
| 2026-04-28 15:34 | 45.20876 | 7.64838 | 994 ft | 16 kts | 260° |
| 2026-04-28 15:34 | 45.20796 | 7.64744 | 994 ft | 16 kts | 188° |
| 2026-04-28 15:34 | 45.20687 | 7.64736 | 994 ft | 15 kts | 181° |
| 2026-04-28 15:34 | 45.20582 | 7.64729 | 991 ft | 16 kts | 182° |
| 2026-04-28 15:35 | 45.20471 | 7.64722 | 989 ft | 16 kts | 183° |
| 2026-04-28 15:35 | 45.20249 | 7.64708 | 980 ft | 19 kts | 182° |
| 2026-04-28 15:35 | 45.20104 | 7.64699 | 974 ft | 22 kts | 182° |
| 2026-04-28 15:36 | 45.19953 | 7.64690 | 969 ft | 23 kts | 182° |
| 2026-04-28 15:36 | 45.19790 | 7.64687 | 965 ft | 23 kts | 170° |
| 2026-04-28 15:36 | 45.19718 | 7.64642 | 963 ft | 12 kts | 250° |
| 2026-04-28 15:36 | 45.19691 | 7.64549 | 963 ft | 9 kts | 214° |
| 2026-04-28 15:37 | 45.19665 | 7.64543 | 966 ft | 0 kts | 184° |
| 2026-04-28 15:38 | 45.19659 | 7.64542 | 963 ft | 3 kts | 184° |
| 2026-04-28 15:38 | 45.19624 | 7.64542 | 966 ft | 7 kts | 164° |
| 2026-04-28 15:38 | 45.19616 | 7.64602 | 966 ft | 1 kts | 92° |